sensor_id;sensor_type;location;lat;lon;timestamp;P1;durP1;ratioP1;P2;durP2;ratioP2
1701;SDS011;848;48.354;10.064;2024-02-16T00:02:20;4.00;;;3.70;;
1701;SDS011;848;48.354;10.064;2024-02-16T00:04:47;4.40;;;3.55;;
1701;SDS011;848;48.354;10.064;2024-02-16T00:07:16;4.53;;;3.55;;
1701;SDS011;848;48.354;10.064;2024-02-16T00:09:42;4.85;;;3.85;;
1701;SDS011;848;48.354;10.064;2024-02-16T00:12:09;5.38;;;3.83;;
1701;SDS011;848;48.354;10.064;2024-02-16T00:14:36;3.67;;;3.35;;
1701;SDS011;848;48.354;10.064;2024-02-16T00:17:03;5.70;;;4.68;;
1701;SDS011;848;48.354;10.064;2024-02-16T00:19:32;4.05;;;3.70;;
1701;SDS011;848;48.354;10.064;2024-02-16T00:21:58;5.40;;;3.85;;
1701;SDS011;848;48.354;10.064;2024-02-16T00:24:27;4.13;;;3.70;;
1701;SDS011;848;48.354;10.064;2024-02-16T00:26:56;3.95;;;3.65;;
1701;SDS011;848;48.354;10.064;2024-02-16T00:29:23;3.78;;;3.38;;
1701;SDS011;848;48.354;10.064;2024-02-16T00:31:50;6.35;;;4.70;;
1701;SDS011;848;48.354;10.064;2024-02-16T00:34:17;5.13;;;3.75;;
1701;SDS011;848;48.354;10.064;2024-02-16T00:36:44;6.63;;;4.30;;
1701;SDS011;848;48.354;10.064;2024-02-16T00:39:11;5.03;;;4.03;;
1701;SDS011;848;48.354;10.064;2024-02-16T00:41:39;5.30;;;4.40;;
1701;SDS011;848;48.354;10.064;2024-02-16T00:44:06;5.55;;;4.15;;
1701;SDS011;848;48.354;10.064;2024-02-16T00:46:33;4.60;;;4.20;;
1701;SDS011;848;48.354;10.064;2024-02-16T00:49:01;11.63;;;4.45;;
1701;SDS011;848;48.354;10.064;2024-02-16T00:51:28;6.78;;;3.90;;
1701;SDS011;848;48.354;10.064;2024-02-16T00:53:55;7.80;;;4.60;;
1701;SDS011;848;48.354;10.064;2024-02-16T00:56:22;4.03;;;3.67;;
1701;SDS011;848;48.354;10.064;2024-02-16T00:58:51;6.43;;;4.15;;
1701;SDS011;848;48.354;10.064;2024-02-16T01:01:20;4.90;;;4.30;;
1701;SDS011;848;48.354;10.064;2024-02-16T01:03:47;8.60;;;4.00;;
1701;SDS011;848;48.354;10.064;2024-02-16T01:06:14;4.47;;;3.92;;
1701;SDS011;848;48.354;10.064;2024-02-16T01:08:41;5.60;;;5.10;;
1701;SDS011;848;48.354;10.064;2024-02-16T01:11:08;4.85;;;3.72;;
1701;SDS011;848;48.354;10.064;2024-02-16T01:13:35;4.32;;;3.92;;
1701;SDS011;848;48.354;10.064;2024-02-16T01:16:03;3.88;;;3.50;;
1701;SDS011;848;48.354;10.064;2024-02-16T01:18:31;5.80;;;4.15;;
1701;SDS011;848;48.354;10.064;2024-02-16T01:20:58;4.60;;;4.15;;
1701;SDS011;848;48.354;10.064;2024-02-16T01:23:25;4.65;;;4.25;;
1701;SDS011;848;48.354;10.064;2024-02-16T01:25:51;4.30;;;3.90;;
1701;SDS011;848;48.354;10.064;2024-02-16T01:28:18;5.15;;;4.43;;
1701;SDS011;848;48.354;10.064;2024-02-16T01:30:45;4.75;;;3.85;;
1701;SDS011;848;48.354;10.064;2024-02-16T01:33:13;6.07;;;4.95;;
1701;SDS011;848;48.354;10.064;2024-02-16T01:35:40;4.07;;;3.75;;
1701;SDS011;848;48.354;10.064;2024-02-16T01:38:07;5.10;;;4.60;;
1701;SDS011;848;48.354;10.064;2024-02-16T01:40:34;4.35;;;3.45;;
1701;SDS011;848;48.354;10.064;2024-02-16T01:43:01;4.57;;;4.20;;
1701;SDS011;848;48.354;10.064;2024-02-16T01:45:28;5.25;;;4.13;;
1701;SDS011;848;48.354;10.064;2024-02-16T01:47:55;4.55;;;3.90;;
1701;SDS011;848;48.354;10.064;2024-02-16T01:50:23;5.60;;;3.78;;
1701;SDS011;848;48.354;10.064;2024-02-16T01:52:50;4.70;;;4.00;;
1701;SDS011;848;48.354;10.064;2024-02-16T01:55:18;6.70;;;4.07;;
1701;SDS011;848;48.354;10.064;2024-02-16T01:57:48;5.15;;;4.60;;
1701;SDS011;848;48.354;10.064;2024-02-16T02:00:15;3.78;;;3.47;;
1701;SDS011;848;48.354;10.064;2024-02-16T02:02:43;7.00;;;5.00;;
1701;SDS011;848;48.354;10.064;2024-02-16T02:05:11;4.10;;;3.70;;
1701;SDS011;848;48.354;10.064;2024-02-16T02:07:41;4.60;;;4.10;;
1701;SDS011;848;48.354;10.064;2024-02-16T02:10:09;4.45;;;3.92;;
1701;SDS011;848;48.354;10.064;2024-02-16T02:12:37;4.13;;;3.72;;
1701;SDS011;848;48.354;10.064;2024-02-16T02:15:05;4.47;;;3.53;;
1701;SDS011;848;48.354;10.064;2024-02-16T02:17:32;16.02;;;3.75;;
1701;SDS011;848;48.354;10.064;2024-02-16T02:19:59;4.47;;;3.80;;
1701;SDS011;848;48.354;10.064;2024-02-16T02:22:27;4.70;;;4.03;;
1701;SDS011;848;48.354;10.064;2024-02-16T02:24:54;3.72;;;3.42;;
1701;SDS011;848;48.354;10.064;2024-02-16T02:27:21;5.25;;;4.30;;
1701;SDS011;848;48.354;10.064;2024-02-16T02:29:48;4.63;;;3.50;;
1701;SDS011;848;48.354;10.064;2024-02-16T02:32:16;4.30;;;3.53;;
1701;SDS011;848;48.354;10.064;2024-02-16T02:34:43;4.32;;;3.90;;
1701;SDS011;848;48.354;10.064;2024-02-16T02:37:10;4.72;;;4.05;;
1701;SDS011;848;48.354;10.064;2024-02-16T02:39:38;4.90;;;3.55;;
1701;SDS011;848;48.354;10.064;2024-02-16T02:42:06;7.80;;;6.20;;
1701;SDS011;848;48.354;10.064;2024-02-16T02:44:33;5.97;;;4.82;;
1701;SDS011;848;48.354;10.064;2024-02-16T02:47:00;4.60;;;4.20;;
1701;SDS011;848;48.354;10.064;2024-02-16T02:49:27;4.72;;;4.20;;
1701;SDS011;848;48.354;10.064;2024-02-16T02:51:54;4.32;;;3.92;;
1701;SDS011;848;48.354;10.064;2024-02-16T02:54:21;3.55;;;3.25;;
1701;SDS011;848;48.354;10.064;2024-02-16T02:56:49;4.32;;;3.75;;
1701;SDS011;848;48.354;10.064;2024-02-16T02:59:16;4.72;;;3.75;;
1701;SDS011;848;48.354;10.064;2024-02-16T03:01:43;5.10;;;3.92;;
1701;SDS011;848;48.354;10.064;2024-02-16T03:04:10;7.32;;;4.88;;
1701;SDS011;848;48.354;10.064;2024-02-16T03:06:37;6.10;;;4.18;;
1701;SDS011;848;48.354;10.064;2024-02-16T03:09:04;5.25;;;4.75;;
1701;SDS011;848;48.354;10.064;2024-02-16T03:11:35;7.05;;;4.95;;
1701;SDS011;848;48.354;10.064;2024-02-16T03:14:03;5.88;;;5.28;;
1701;SDS011;848;48.354;10.064;2024-02-16T03:16:31;6.82;;;5.30;;
1701;SDS011;848;48.354;10.064;2024-02-16T03:18:58;5.32;;;4.55;;
1701;SDS011;848;48.354;10.064;2024-02-16T03:21:24;7.05;;;5.68;;
1701;SDS011;848;48.354;10.064;2024-02-16T03:23:52;6.43;;;4.85;;
1701;SDS011;848;48.354;10.064;2024-02-16T03:26:19;7.65;;;5.30;;
1701;SDS011;848;48.354;10.064;2024-02-16T03:28:46;5.35;;;4.85;;
1701;SDS011;848;48.354;10.064;2024-02-16T03:31:18;6.25;;;4.75;;
1701;SDS011;848;48.354;10.064;2024-02-16T03:33:47;5.82;;;4.65;;
1701;SDS011;848;48.354;10.064;2024-02-16T03:36:14;10.32;;;5.05;;
1701;SDS011;848;48.354;10.064;2024-02-16T03:38:41;6.07;;;4.70;;
1701;SDS011;848;48.354;10.064;2024-02-16T03:41:12;4.60;;;4.22;;
1701;SDS011;848;48.354;10.064;2024-02-16T03:43:41;7.38;;;4.00;;
1701;SDS011;848;48.354;10.064;2024-02-16T03:46:08;6.35;;;4.80;;
1701;SDS011;848;48.354;10.064;2024-02-16T03:48:36;6.55;;;4.57;;
1701;SDS011;848;48.354;10.064;2024-02-16T03:51:04;6.30;;;4.95;;
1701;SDS011;848;48.354;10.064;2024-02-16T03:53:32;6.65;;;4.90;;
1701;SDS011;848;48.354;10.064;2024-02-16T03:55:59;5.20;;;4.53;;
1701;SDS011;848;48.354;10.064;2024-02-16T03:58:26;4.63;;;4.05;;
1701;SDS011;848;48.354;10.064;2024-02-16T04:00:53;7.07;;;4.82;;
1701;SDS011;848;48.354;10.064;2024-02-16T04:03:19;4.88;;;4.43;;
1701;SDS011;848;48.354;10.064;2024-02-16T04:05:48;5.03;;;4.53;;
1701;SDS011;848;48.354;10.064;2024-02-16T04:08:15;10.02;;;4.13;;
1701;SDS011;848;48.354;10.064;2024-02-16T04:10:41;5.50;;;4.60;;
1701;SDS011;848;48.354;10.064;2024-02-16T04:13:08;5.20;;;4.70;;
1701;SDS011;848;48.354;10.064;2024-02-16T04:15:35;9.85;;;5.10;;
1701;SDS011;848;48.354;10.064;2024-02-16T04:18:03;7.57;;;5.47;;
1701;SDS011;848;48.354;10.064;2024-02-16T04:20:31;6.35;;;4.57;;
1701;SDS011;848;48.354;10.064;2024-02-16T04:23:00;8.18;;;5.07;;
1701;SDS011;848;48.354;10.064;2024-02-16T04:25:27;6.70;;;4.70;;
1701;SDS011;848;48.354;10.064;2024-02-16T04:27:53;6.05;;;4.13;;
1701;SDS011;848;48.354;10.064;2024-02-16T04:30:20;6.20;;;4.50;;
1701;SDS011;848;48.354;10.064;2024-02-16T04:32:48;6.00;;;4.53;;
1701;SDS011;848;48.354;10.064;2024-02-16T04:35:15;8.18;;;6.30;;
1701;SDS011;848;48.354;10.064;2024-02-16T04:37:42;10.55;;;6.50;;
1701;SDS011;848;48.354;10.064;2024-02-16T04:40:10;4.75;;;4.25;;
1701;SDS011;848;48.354;10.064;2024-02-16T04:42:38;6.20;;;5.35;;
1701;SDS011;848;48.354;10.064;2024-02-16T04:45:06;4.28;;;3.88;;
1701;SDS011;848;48.354;10.064;2024-02-16T04:47:33;7.57;;;4.72;;
1701;SDS011;848;48.354;10.064;2024-02-16T04:50:00;8.48;;;5.07;;
1701;SDS011;848;48.354;10.064;2024-02-16T04:52:30;4.70;;;4.25;;
1701;SDS011;848;48.354;10.064;2024-02-16T04:54:57;7.15;;;5.00;;
1701;SDS011;848;48.354;10.064;2024-02-16T04:57:25;7.10;;;5.13;;
1701;SDS011;848;48.354;10.064;2024-02-16T04:59:52;6.85;;;5.03;;
1701;SDS011;848;48.354;10.064;2024-02-16T05:02:19;5.65;;;4.80;;
1701;SDS011;848;48.354;10.064;2024-02-16T05:04:46;13.10;;;5.80;;
1701;SDS011;848;48.354;10.064;2024-02-16T05:07:13;5.85;;;5.35;;
1701;SDS011;848;48.354;10.064;2024-02-16T05:09:40;7.63;;;5.53;;
1701;SDS011;848;48.354;10.064;2024-02-16T05:12:08;5.90;;;5.40;;
1701;SDS011;848;48.354;10.064;2024-02-16T05:14:36;10.60;;;6.03;;
1701;SDS011;848;48.354;10.064;2024-02-16T05:17:03;9.50;;;5.28;;
1701;SDS011;848;48.354;10.064;2024-02-16T05:19:32;6.65;;;5.90;;
1701;SDS011;848;48.354;10.064;2024-02-16T05:22:00;10.98;;;7.20;;
1701;SDS011;848;48.354;10.064;2024-02-16T05:24:27;16.15;;;10.43;;
1701;SDS011;848;48.354;10.064;2024-02-16T05:26:54;9.80;;;7.80;;
1701;SDS011;848;48.354;10.064;2024-02-16T05:29:21;10.35;;;6.50;;
1701;SDS011;848;48.354;10.064;2024-02-16T05:31:51;44.30;;;25.02;;
1701;SDS011;848;48.354;10.064;2024-02-16T05:34:18;13.82;;;11.05;;
1701;SDS011;848;48.354;10.064;2024-02-16T05:36:45;45.13;;;23.60;;
1701;SDS011;848;48.354;10.064;2024-02-16T05:39:12;32.55;;;12.68;;
1701;SDS011;848;48.354;10.064;2024-02-16T05:41:51;8.65;;;7.47;;
1701;SDS011;848;48.354;10.064;2024-02-16T05:44:18;6.15;;;5.55;;
1701;SDS011;848;48.354;10.064;2024-02-16T05:46:46;9.77;;;6.78;;
1701;SDS011;848;48.354;10.064;2024-02-16T05:49:14;8.55;;;6.70;;
1701;SDS011;848;48.354;10.064;2024-02-16T05:51:42;7.72;;;6.97;;
1701;SDS011;848;48.354;10.064;2024-02-16T05:54:25;10.43;;;7.93;;
1701;SDS011;848;48.354;10.064;2024-02-16T05:56:52;11.63;;;7.60;;
1701;SDS011;848;48.354;10.064;2024-02-16T05:59:19;10.43;;;6.30;;
1701;SDS011;848;48.354;10.064;2024-02-16T06:01:47;7.05;;;6.35;;
1701;SDS011;848;48.354;10.064;2024-02-16T06:04:15;7.30;;;6.60;;
1701;SDS011;848;48.354;10.064;2024-02-16T06:06:42;9.30;;;7.13;;
1701;SDS011;848;48.354;10.064;2024-02-16T06:09:09;18.40;;;11.20;;
1701;SDS011;848;48.354;10.064;2024-02-16T06:11:36;12.95;;;8.07;;
1701;SDS011;848;48.354;10.064;2024-02-16T06:14:04;15.50;;;9.27;;
1701;SDS011;848;48.354;10.064;2024-02-16T06:16:30;12.45;;;8.98;;
1701;SDS011;848;48.354;10.064;2024-02-16T06:18:57;9.50;;;7.68;;
1701;SDS011;848;48.354;10.064;2024-02-16T06:21:26;11.40;;;7.85;;
1701;SDS011;848;48.354;10.064;2024-02-16T06:23:53;11.68;;;8.20;;
1701;SDS011;848;48.354;10.064;2024-02-16T06:26:20;15.07;;;9.13;;
1701;SDS011;848;48.354;10.064;2024-02-16T06:28:47;8.43;;;5.97;;
1701;SDS011;848;48.354;10.064;2024-02-16T06:31:14;9.00;;;6.93;;
1701;SDS011;848;48.354;10.064;2024-02-16T06:33:41;9.30;;;7.07;;
1701;SDS011;848;48.354;10.064;2024-02-16T06:36:08;6.88;;;6.10;;
1701;SDS011;848;48.354;10.064;2024-02-16T06:38:37;10.73;;;7.22;;
1701;SDS011;848;48.354;10.064;2024-02-16T06:41:03;8.00;;;7.15;;
1701;SDS011;848;48.354;10.064;2024-02-16T06:43:31;7.35;;;6.35;;
1701;SDS011;848;48.354;10.064;2024-02-16T06:45:57;9.43;;;6.75;;
1701;SDS011;848;48.354;10.064;2024-02-16T06:48:24;10.35;;;8.45;;
1701;SDS011;848;48.354;10.064;2024-02-16T06:50:51;8.48;;;6.15;;
1701;SDS011;848;48.354;10.064;2024-02-16T06:53:19;9.75;;;7.40;;
1701;SDS011;848;48.354;10.064;2024-02-16T06:55:47;8.68;;;6.47;;
1701;SDS011;848;48.354;10.064;2024-02-16T06:58:15;11.82;;;7.35;;
1701;SDS011;848;48.354;10.064;2024-02-16T07:00:42;9.30;;;6.95;;
1701;SDS011;848;48.354;10.064;2024-02-16T07:03:09;12.07;;;7.07;;
1701;SDS011;848;48.354;10.064;2024-02-16T07:05:36;10.10;;;7.35;;
1701;SDS011;848;48.354;10.064;2024-02-16T07:08:04;10.43;;;7.53;;
1701;SDS011;848;48.354;10.064;2024-02-16T07:10:32;12.48;;;7.72;;
1701;SDS011;848;48.354;10.064;2024-02-16T07:13:00;9.43;;;7.03;;
1701;SDS011;848;48.354;10.064;2024-02-16T07:15:28;10.85;;;7.93;;
1701;SDS011;848;48.354;10.064;2024-02-16T07:17:55;11.15;;;7.15;;
1701;SDS011;848;48.354;10.064;2024-02-16T07:20:22;8.52;;;7.28;;
1701;SDS011;848;48.354;10.064;2024-02-16T07:22:49;10.73;;;8.35;;
1701;SDS011;848;48.354;10.064;2024-02-16T07:25:16;9.18;;;7.05;;
1701;SDS011;848;48.354;10.064;2024-02-16T07:27:43;8.70;;;7.25;;
1701;SDS011;848;48.354;10.064;2024-02-16T07:30:12;10.77;;;7.45;;
1701;SDS011;848;48.354;10.064;2024-02-16T07:32:39;9.73;;;7.75;;
1701;SDS011;848;48.354;10.064;2024-02-16T07:35:06;11.38;;;8.07;;
1701;SDS011;848;48.354;10.064;2024-02-16T07:37:35;14.90;;;8.10;;
1701;SDS011;848;48.354;10.064;2024-02-16T07:40:02;12.98;;;7.30;;
1701;SDS011;848;48.354;10.064;2024-02-16T07:42:31;12.68;;;8.13;;
1701;SDS011;848;48.354;10.064;2024-02-16T07:44:58;8.88;;;6.85;;
1701;SDS011;848;48.354;10.064;2024-02-16T07:47:26;11.70;;;8.27;;
1701;SDS011;848;48.354;10.064;2024-02-16T07:49:53;11.65;;;7.75;;
1701;SDS011;848;48.354;10.064;2024-02-16T07:52:20;12.85;;;7.43;;
1701;SDS011;848;48.354;10.064;2024-02-16T07:54:47;12.75;;;9.75;;
1701;SDS011;848;48.354;10.064;2024-02-16T07:57:16;10.60;;;7.88;;
1701;SDS011;848;48.354;10.064;2024-02-16T07:59:45;9.45;;;8.10;;
1701;SDS011;848;48.354;10.064;2024-02-16T08:02:12;10.70;;;8.05;;
1701;SDS011;848;48.354;10.064;2024-02-16T08:04:42;9.57;;;7.85;;
1701;SDS011;848;48.354;10.064;2024-02-16T08:07:09;12.65;;;8.50;;
1701;SDS011;848;48.354;10.064;2024-02-16T08:09:36;11.50;;;7.88;;
1701;SDS011;848;48.354;10.064;2024-02-16T08:12:03;14.80;;;8.60;;
1701;SDS011;848;48.354;10.064;2024-02-16T08:14:31;9.05;;;7.65;;
1701;SDS011;848;48.354;10.064;2024-02-16T08:16:59;13.63;;;9.85;;
1701;SDS011;848;48.354;10.064;2024-02-16T08:19:32;14.07;;;8.50;;
1701;SDS011;848;48.354;10.064;2024-02-16T08:22:02;12.38;;;9.15;;
1701;SDS011;848;48.354;10.064;2024-02-16T08:24:31;12.32;;;8.23;;
1701;SDS011;848;48.354;10.064;2024-02-16T08:26:58;12.48;;;8.35;;
1701;SDS011;848;48.354;10.064;2024-02-16T08:29:25;13.60;;;8.70;;
1701;SDS011;848;48.354;10.064;2024-02-16T08:31:52;10.65;;;8.82;;
1701;SDS011;848;48.354;10.064;2024-02-16T08:34:20;11.75;;;8.70;;
1701;SDS011;848;48.354;10.064;2024-02-16T08:36:47;11.57;;;7.93;;
1701;SDS011;848;48.354;10.064;2024-02-16T08:39:16;14.32;;;9.90;;
1701;SDS011;848;48.354;10.064;2024-02-16T08:41:45;14.40;;;9.57;;
1701;SDS011;848;48.354;10.064;2024-02-16T08:44:13;12.93;;;8.55;;
1701;SDS011;848;48.354;10.064;2024-02-16T08:46:40;9.38;;;7.22;;
1701;SDS011;848;48.354;10.064;2024-02-16T08:49:07;10.65;;;8.05;;
1701;SDS011;848;48.354;10.064;2024-02-16T08:51:34;12.15;;;7.72;;
1701;SDS011;848;48.354;10.064;2024-02-16T08:54:01;12.90;;;7.53;;
1701;SDS011;848;48.354;10.064;2024-02-16T08:56:30;11.05;;;7.88;;
1701;SDS011;848;48.354;10.064;2024-02-16T08:59:00;10.65;;;7.70;;
1701;SDS011;848;48.354;10.064;2024-02-16T09:01:30;10.27;;;8.27;;
1701;SDS011;848;48.354;10.064;2024-02-16T09:03:57;14.52;;;8.45;;
1701;SDS011;848;48.354;10.064;2024-02-16T09:06:25;11.35;;;7.97;;
1701;SDS011;848;48.354;10.064;2024-02-16T09:08:52;9.65;;;7.18;;
1701;SDS011;848;48.354;10.064;2024-02-16T09:11:19;9.75;;;7.22;;
1701;SDS011;848;48.354;10.064;2024-02-16T09:13:47;12.98;;;8.35;;
1701;SDS011;848;48.354;10.064;2024-02-16T09:16:14;11.57;;;8.32;;
1701;SDS011;848;48.354;10.064;2024-02-16T09:18:41;11.10;;;7.78;;
1701;SDS011;848;48.354;10.064;2024-02-16T09:21:08;9.32;;;7.25;;
1701;SDS011;848;48.354;10.064;2024-02-16T09:23:35;11.65;;;7.60;;
1701;SDS011;848;48.354;10.064;2024-02-16T09:26:03;10.73;;;6.60;;
1701;SDS011;848;48.354;10.064;2024-02-16T09:28:30;11.18;;;7.65;;
1701;SDS011;848;48.354;10.064;2024-02-16T09:30:59;13.02;;;8.60;;
1701;SDS011;848;48.354;10.064;2024-02-16T09:33:25;9.90;;;7.25;;
1701;SDS011;848;48.354;10.064;2024-02-16T09:35:53;12.55;;;8.27;;
1701;SDS011;848;48.354;10.064;2024-02-16T09:38:20;9.85;;;7.35;;
1701;SDS011;848;48.354;10.064;2024-02-16T09:40:50;10.75;;;7.78;;
1701;SDS011;848;48.354;10.064;2024-02-16T09:43:27;9.25;;;7.47;;
1701;SDS011;848;48.354;10.064;2024-02-16T09:45:55;9.65;;;6.05;;
1701;SDS011;848;48.354;10.064;2024-02-16T09:48:25;12.52;;;7.53;;
1701;SDS011;848;48.354;10.064;2024-02-16T09:50:53;11.95;;;7.20;;
1701;SDS011;848;48.354;10.064;2024-02-16T09:53:21;13.13;;;7.55;;
1701;SDS011;848;48.354;10.064;2024-02-16T09:55:50;8.48;;;6.82;;
1701;SDS011;848;48.354;10.064;2024-02-16T09:58:17;10.02;;;7.05;;
1701;SDS011;848;48.354;10.064;2024-02-16T10:00:48;9.65;;;6.43;;
1701;SDS011;848;48.354;10.064;2024-02-16T10:03:24;11.75;;;7.82;;
1701;SDS011;848;48.354;10.064;2024-02-16T10:05:52;6.80;;;6.10;;
1701;SDS011;848;48.354;10.064;2024-02-16T10:08:30;10.23;;;6.75;;
1701;SDS011;848;48.354;10.064;2024-02-16T10:11:00;9.02;;;6.88;;
1701;SDS011;848;48.354;10.064;2024-02-16T10:13:28;12.88;;;7.22;;
1701;SDS011;848;48.354;10.064;2024-02-16T10:16:03;9.60;;;6.57;;
1701;SDS011;848;48.354;10.064;2024-02-16T10:18:32;11.73;;;6.50;;
1701;SDS011;848;48.354;10.064;2024-02-16T10:20:59;12.07;;;6.90;;
1701;SDS011;848;48.354;10.064;2024-02-16T10:23:26;9.63;;;7.20;;
1701;SDS011;848;48.354;10.064;2024-02-16T10:25:53;12.10;;;7.05;;
1701;SDS011;848;48.354;10.064;2024-02-16T10:28:20;8.27;;;7.00;;
1701;SDS011;848;48.354;10.064;2024-02-16T10:30:53;11.38;;;7.18;;
1701;SDS011;848;48.354;10.064;2024-02-16T10:33:26;8.80;;;7.45;;
1701;SDS011;848;48.354;10.064;2024-02-16T10:35:56;8.52;;;6.80;;
1701;SDS011;848;48.354;10.064;2024-02-16T10:38:24;8.95;;;6.85;;
1701;SDS011;848;48.354;10.064;2024-02-16T10:40:52;10.77;;;6.75;;
1701;SDS011;848;48.354;10.064;2024-02-16T10:43:20;10.05;;;7.05;;
1701;SDS011;848;48.354;10.064;2024-02-16T10:45:48;8.93;;;7.15;;
1701;SDS011;848;48.354;10.064;2024-02-16T10:48:18;11.60;;;7.40;;
1701;SDS011;848;48.354;10.064;2024-02-16T10:50:45;10.13;;;7.13;;
1701;SDS011;848;48.354;10.064;2024-02-16T10:53:19;8.80;;;7.47;;
1701;SDS011;848;48.354;10.064;2024-02-16T10:55:49;10.77;;;7.22;;
1701;SDS011;848;48.354;10.064;2024-02-16T10:58:17;9.40;;;7.22;;
1701;SDS011;848;48.354;10.064;2024-02-16T11:00:48;11.27;;;7.13;;
1701;SDS011;848;48.354;10.064;2024-02-16T11:03:18;7.75;;;6.40;;
1701;SDS011;848;48.354;10.064;2024-02-16T11:05:49;9.18;;;6.40;;
1701;SDS011;848;48.354;10.064;2024-02-16T11:08:18;8.27;;;6.47;;
1701;SDS011;848;48.354;10.064;2024-02-16T11:10:55;6.57;;;5.53;;
1701;SDS011;848;48.354;10.064;2024-02-16T11:13:26;10.15;;;7.57;;
1701;SDS011;848;48.354;10.064;2024-02-16T11:15:57;11.15;;;7.45;;
1701;SDS011;848;48.354;10.064;2024-02-16T11:18:25;6.57;;;5.80;;
1701;SDS011;848;48.354;10.064;2024-02-16T11:20:53;8.43;;;6.18;;
1701;SDS011;848;48.354;10.064;2024-02-16T11:23:28;10.23;;;6.60;;
1701;SDS011;848;48.354;10.064;2024-02-16T11:25:59;8.10;;;6.25;;
1701;SDS011;848;48.354;10.064;2024-02-16T11:28:28;8.57;;;6.20;;
1701;SDS011;848;48.354;10.064;2024-02-16T11:30:57;8.43;;;6.90;;
1701;SDS011;848;48.354;10.064;2024-02-16T11:33:23;9.07;;;6.30;;
1701;SDS011;848;48.354;10.064;2024-02-16T11:35:52;10.50;;;6.18;;
1701;SDS011;848;48.354;10.064;2024-02-16T11:38:20;9.00;;;6.93;;
1701;SDS011;848;48.354;10.064;2024-02-16T11:40:55;8.45;;;6.03;;
1701;SDS011;848;48.354;10.064;2024-02-16T11:43:23;8.82;;;6.38;;
1701;SDS011;848;48.354;10.064;2024-02-16T11:45:50;6.05;;;5.45;;
1701;SDS011;848;48.354;10.064;2024-02-16T11:48:21;8.10;;;6.25;;
1701;SDS011;848;48.354;10.064;2024-02-16T11:50:48;6.40;;;5.43;;
1701;SDS011;848;48.354;10.064;2024-02-16T11:53:16;9.50;;;6.35;;
1701;SDS011;848;48.354;10.064;2024-02-16T11:55:48;8.43;;;6.57;;
1701;SDS011;848;48.354;10.064;2024-02-16T11:58:17;8.05;;;6.13;;
1701;SDS011;848;48.354;10.064;2024-02-16T12:00:45;9.35;;;5.32;;
1701;SDS011;848;48.354;10.064;2024-02-16T12:03:17;8.13;;;6.30;;
1701;SDS011;848;48.354;10.064;2024-02-16T12:05:49;9.35;;;5.13;;
1701;SDS011;848;48.354;10.064;2024-02-16T12:08:16;8.63;;;5.25;;
1701;SDS011;848;48.354;10.064;2024-02-16T12:10:43;9.02;;;5.43;;
1701;SDS011;848;48.354;10.064;2024-02-16T12:13:10;6.88;;;5.20;;
1701;SDS011;848;48.354;10.064;2024-02-16T12:15:38;8.05;;;5.40;;
1701;SDS011;848;48.354;10.064;2024-02-16T12:18:05;10.18;;;5.20;;
1701;SDS011;848;48.354;10.064;2024-02-16T12:20:32;6.95;;;4.72;;
1701;SDS011;848;48.354;10.064;2024-02-16T12:22:59;6.05;;;4.40;;
1701;SDS011;848;48.354;10.064;2024-02-16T12:25:37;6.72;;;4.80;;
1701;SDS011;848;48.354;10.064;2024-02-16T12:28:04;7.95;;;5.05;;
1701;SDS011;848;48.354;10.064;2024-02-16T12:30:33;6.13;;;4.68;;
1701;SDS011;848;48.354;10.064;2024-02-16T12:33:01;6.28;;;5.50;;
1701;SDS011;848;48.354;10.064;2024-02-16T12:35:28;6.80;;;4.72;;
1701;SDS011;848;48.354;10.064;2024-02-16T12:37:55;7.60;;;5.32;;
1701;SDS011;848;48.354;10.064;2024-02-16T12:40:22;14.30;;;5.05;;
1701;SDS011;848;48.354;10.064;2024-02-16T12:42:48;5.88;;;4.18;;
1701;SDS011;848;48.354;10.064;2024-02-16T12:45:15;5.63;;;4.00;;
1701;SDS011;848;48.354;10.064;2024-02-16T12:47:42;5.75;;;3.88;;
1701;SDS011;848;48.354;10.064;2024-02-16T12:50:11;9.57;;;4.90;;
1701;SDS011;848;48.354;10.064;2024-02-16T12:52:38;4.90;;;4.10;;
1701;SDS011;848;48.354;10.064;2024-02-16T12:55:05;8.50;;;4.05;;
1701;SDS011;848;48.354;10.064;2024-02-16T12:57:35;14.05;;;3.45;;
1701;SDS011;848;48.354;10.064;2024-02-16T13:00:01;6.95;;;4.35;;
1701;SDS011;848;48.354;10.064;2024-02-16T13:02:29;5.88;;;3.35;;
1701;SDS011;848;48.354;10.064;2024-02-16T13:04:56;5.13;;;4.25;;
1701;SDS011;848;48.354;10.064;2024-02-16T13:07:24;6.55;;;4.20;;
1701;SDS011;848;48.354;10.064;2024-02-16T13:09:51;6.22;;;4.00;;
1701;SDS011;848;48.354;10.064;2024-02-16T13:12:18;8.48;;;3.92;;
1701;SDS011;848;48.354;10.064;2024-02-16T13:14:47;6.45;;;3.30;;
1701;SDS011;848;48.354;10.064;2024-02-16T13:17:14;5.43;;;3.58;;
1701;SDS011;848;48.354;10.064;2024-02-16T13:19:42;5.80;;;3.50;;
1701;SDS011;848;48.354;10.064;2024-02-16T13:22:08;7.20;;;3.92;;
1701;SDS011;848;48.354;10.064;2024-02-16T13:24:37;6.43;;;3.47;;
1701;SDS011;848;48.354;10.064;2024-02-16T13:27:04;4.93;;;3.45;;
1701;SDS011;848;48.354;10.064;2024-02-16T13:29:32;5.40;;;2.47;;
1701;SDS011;848;48.354;10.064;2024-02-16T13:31:58;4.28;;;3.22;;
1701;SDS011;848;48.354;10.064;2024-02-16T13:34:25;3.22;;;2.90;;
1701;SDS011;848;48.354;10.064;2024-02-16T13:36:52;4.72;;;3.70;;
1701;SDS011;848;48.354;10.064;2024-02-16T13:39:19;7.30;;;3.92;;
1701;SDS011;848;48.354;10.064;2024-02-16T13:41:48;5.65;;;3.30;;
1701;SDS011;848;48.354;10.064;2024-02-16T13:44:16;4.35;;;3.00;;
1701;SDS011;848;48.354;10.064;2024-02-16T13:46:43;7.72;;;3.53;;
1701;SDS011;848;48.354;10.064;2024-02-16T13:49:12;7.43;;;3.85;;
1701;SDS011;848;48.354;10.064;2024-02-16T13:51:39;6.00;;;4.43;;
1701;SDS011;848;48.354;10.064;2024-02-16T13:54:07;5.53;;;3.60;;
1701;SDS011;848;48.354;10.064;2024-02-16T13:56:34;4.30;;;3.38;;
1701;SDS011;848;48.354;10.064;2024-02-16T13:59:05;4.75;;;3.33;;
1701;SDS011;848;48.354;10.064;2024-02-16T14:01:32;7.05;;;3.60;;
1701;SDS011;848;48.354;10.064;2024-02-16T14:03:59;5.05;;;3.35;;
1701;SDS011;848;48.354;10.064;2024-02-16T14:06:28;5.80;;;4.03;;
1701;SDS011;848;48.354;10.064;2024-02-16T14:08:56;7.60;;;4.10;;
1701;SDS011;848;48.354;10.064;2024-02-16T14:11:23;9.80;;;4.60;;
1701;SDS011;848;48.354;10.064;2024-02-16T14:13:49;5.65;;;3.50;;
1701;SDS011;848;48.354;10.064;2024-02-16T14:16:18;3.50;;;3.20;;
1701;SDS011;848;48.354;10.064;2024-02-16T14:18:45;5.15;;;4.65;;
1701;SDS011;848;48.354;10.064;2024-02-16T14:21:13;6.18;;;3.75;;
1701;SDS011;848;48.354;10.064;2024-02-16T14:23:40;4.88;;;4.20;;
1701;SDS011;848;48.354;10.064;2024-02-16T14:26:07;6.18;;;3.97;;
1701;SDS011;848;48.354;10.064;2024-02-16T14:28:35;4.70;;;3.45;;
1701;SDS011;848;48.354;10.064;2024-02-16T14:31:01;7.00;;;4.60;;
1701;SDS011;848;48.354;10.064;2024-02-16T14:33:30;4.90;;;3.63;;
1701;SDS011;848;48.354;10.064;2024-02-16T14:35:57;5.97;;;4.25;;
1701;SDS011;848;48.354;10.064;2024-02-16T14:38:24;11.45;;;4.40;;
1701;SDS011;848;48.354;10.064;2024-02-16T14:40:51;6.47;;;3.97;;
1701;SDS011;848;48.354;10.064;2024-02-16T14:43:18;7.00;;;3.42;;
1701;SDS011;848;48.354;10.064;2024-02-16T14:45:44;4.63;;;3.80;;
1701;SDS011;848;48.354;10.064;2024-02-16T14:48:11;5.90;;;3.78;;
1701;SDS011;848;48.354;10.064;2024-02-16T14:50:40;4.05;;;3.15;;
1701;SDS011;848;48.354;10.064;2024-02-16T14:53:07;5.18;;;4.03;;
1701;SDS011;848;48.354;10.064;2024-02-16T14:55:33;6.65;;;3.97;;
1701;SDS011;848;48.354;10.064;2024-02-16T14:58:01;6.80;;;3.70;;
1701;SDS011;848;48.354;10.064;2024-02-16T15:00:29;5.30;;;3.53;;
1701;SDS011;848;48.354;10.064;2024-02-16T15:02:55;5.20;;;3.65;;
1701;SDS011;848;48.354;10.064;2024-02-16T15:05:22;8.45;;;4.32;;
1701;SDS011;848;48.354;10.064;2024-02-16T15:07:50;5.50;;;3.97;;
1701;SDS011;848;48.354;10.064;2024-02-16T15:10:17;4.50;;;3.10;;
1701;SDS011;848;48.354;10.064;2024-02-16T15:12:44;6.50;;;3.67;;
1701;SDS011;848;48.354;10.064;2024-02-16T15:15:11;5.55;;;3.90;;
1701;SDS011;848;48.354;10.064;2024-02-16T15:17:38;6.38;;;3.50;;